createdAt,value
2019-01-10T00:00:20.287Z,624.4
2019-01-10T00:01:22.733Z,624.5
2019-01-10T00:02:24.888Z,624
2019-01-10T00:03:27.310Z,624.2
2019-01-10T00:04:29.742Z,624
2019-01-10T00:05:32.179Z,624.2
2019-01-10T00:06:34.367Z,623.7
2019-01-10T00:07:36.793Z,623.8
2019-01-10T00:08:39.224Z,624.2
2019-01-10T00:09:41.375Z,624.1
2019-01-10T00:10:43.808Z,624
2019-01-10T00:11:46.233Z,623.9
2019-01-10T00:12:48.665Z,624.2
2019-01-10T00:13:51.094Z,624
2019-01-10T00:14:53.553Z,623.7
2019-01-10T00:15:55.737Z,624.2
2019-01-10T00:16:58.158Z,623.9
2019-01-10T00:18:00.589Z,623.8
2019-01-10T00:19:03.011Z,623.6
2019-01-10T00:20:05.446Z,623.6
2019-01-10T00:21:07.877Z,624
2019-01-10T00:22:10.305Z,623.6
2019-01-10T00:23:12.473Z,623.6
2019-01-10T00:24:14.642Z,623.3
2019-01-10T00:25:17.062Z,623.5
2019-01-10T00:26:34.256Z,623.5
2019-01-10T00:27:36.699Z,623.5
2019-01-10T00:28:39.136Z,623.6
2019-01-10T00:29:41.014Z,623.4
2019-01-10T00:30:43.169Z,623.3
2019-01-10T00:31:45.594Z,623.6
2019-01-10T00:32:48.019Z,623.2
2019-01-10T00:33:50.165Z,623.1
2019-01-10T00:34:52.047Z,623.4
2019-01-10T00:35:54.471Z,622.7
2019-01-10T00:36:56.633Z,623.1
2019-01-10T00:37:59.057Z,622.6
2019-01-10T00:39:01.484Z,622.3
2019-01-10T00:40:03.910Z,622.5
2019-01-10T00:41:06.369Z,622.5
2019-01-10T00:42:08.883Z,622
2019-01-10T00:43:11.315Z,622
2019-01-10T00:44:13.744Z,621.5
2019-01-10T00:45:15.913Z,621.2
2019-01-10T00:46:18.075Z,620.9
2019-01-10T00:47:20.504Z,620.7
2019-01-10T00:48:22.937Z,621.3
2019-01-10T00:49:25.386Z,621.3
2019-01-10T00:50:27.831Z,620.8
2019-01-10T00:51:30.259Z,620.9
2019-01-10T00:52:32.684Z,621.2
2019-01-10T00:53:34.843Z,620.8
2019-01-10T00:54:37.271Z,620.9
2019-01-10T00:55:39.702Z,620.9
2019-01-10T00:56:42.138Z,620.9
2019-01-10T00:57:44.562Z,620.5
2019-01-10T00:58:46.710Z,620.5
2019-01-10T00:59:48.565Z,620.3
2019-01-10T01:00:50.525Z,619.7
2019-01-10T01:01:52.673Z,620
2019-01-10T01:02:55.095Z,619.9
2019-01-10T01:03:57.523Z,619.7
2019-01-10T01:04:59.655Z,619.6
2019-01-10T01:06:02.075Z,619.3
2019-01-10T01:07:04.564Z,618.5
2019-01-10T01:08:06.996Z,618.7
2019-01-10T01:09:09.414Z,618.5
2019-01-10T01:10:11.850Z,618.7
2019-01-10T01:11:14.277Z,618.6
2019-01-10T01:12:16.734Z,618.4
2019-01-10T01:13:19.143Z,618.5
2019-01-10T01:14:21.300Z,618.1
2019-01-10T01:15:23.734Z,618
2019-01-10T01:16:26.165Z,617.9
2019-01-10T01:17:28.595Z,617.9
2019-01-10T01:18:31.041Z,617.8
2019-01-10T01:19:33.469Z,618
2019-01-10T01:20:35.895Z,617.7
2019-01-10T01:21:38.043Z,617.9
2019-01-10T01:22:40.205Z,617.5
2019-01-10T01:23:42.359Z,617.7
2019-01-10T01:24:44.782Z,617.8
2019-01-10T01:25:47.214Z,617.3
2019-01-10T01:26:49.644Z,617.4
2019-01-10T01:27:51.503Z,617.1
2019-01-10T01:28:53.666Z,617.3
2019-01-10T01:29:56.165Z,617.6
2019-01-10T01:30:58.593Z,617.1
2019-01-10T01:32:01.019Z,617.6
2019-01-10T01:33:03.442Z,617.7
2019-01-10T01:34:05.291Z,617.3
2019-01-10T01:35:07.433Z,617.5
2019-01-10T01:36:09.861Z,617.5
2019-01-10T01:37:12.011Z,617.4
2019-01-10T01:38:14.435Z,617.3
2019-01-10T01:39:16.305Z,617.2
2019-01-10T01:40:18.735Z,616.9
2019-01-10T01:41:21.170Z,617.2
2019-01-10T01:42:23.595Z,617.2
2019-01-10T01:43:25.749Z,617.1
2019-01-10T01:44:28.245Z,616.9
2019-01-10T01:45:30.664Z,616.7
2019-01-10T01:46:32.895Z,617
2019-01-10T01:47:35.335Z,616.8
2019-01-10T01:48:37.759Z,616.5
2019-01-10T01:49:39.638Z,616.7
2019-01-10T01:50:42.067Z,616.5
2019-01-10T01:51:44.485Z,616.6
2019-01-10T01:52:46.913Z,616.6
2019-01-10T01:53:49.073Z,616.6
2019-01-10T01:54:51.201Z,616.1
2019-01-10T01:55:53.632Z,616.4
2019-01-10T01:56:55.781Z,615.9
2019-01-10T01:57:57.661Z,616.4
2019-01-10T01:59:01.566Z,616.2
2019-01-10T02:00:03.995Z,616.5
2019-01-10T02:01:06.150Z,616
2019-01-10T02:02:08.673Z,616.2
2019-01-10T02:03:11.099Z,616.1
2019-01-10T02:04:12.705Z,616
2019-01-10T02:05:14.862Z,616.1
2019-01-10T02:06:17.019Z,615.6
2019-01-10T02:07:19.155Z,616.2
2019-01-10T02:08:21.301Z,615.8
2019-01-10T02:09:23.436Z,615.8
2019-01-10T02:10:25.943Z,615.8
2019-01-10T02:11:28.386Z,615.8
2019-01-10T02:12:30.815Z,615.6
2019-01-10T02:13:33.241Z,615.7
2019-01-10T02:14:35.663Z,615.6
2019-01-10T02:15:38.147Z,615.6
2019-01-10T02:16:40.579Z,615.4
2019-01-10T02:18:47.975Z,615.3
2019-01-10T02:19:50.409Z,614.9
2019-01-10T02:20:52.545Z,614.9
2019-01-10T02:21:54.980Z,615
2019-01-10T02:22:57.139Z,615
2019-01-10T02:23:59.572Z,614.7
2019-01-10T02:25:01.665Z,614.8
2019-01-10T02:26:04.100Z,614.8
2019-01-10T02:27:06.524Z,615
2019-01-10T02:28:08.947Z,615.1
2019-01-10T02:29:11.158Z,614.7
2019-01-10T02:30:13.303Z,614.9
2019-01-10T02:31:15.735Z,615.2
2019-01-10T02:32:18.158Z,615
2019-01-10T02:33:20.595Z,615
2019-01-10T02:34:23.025Z,614.9
2019-01-10T02:35:25.462Z,614.6
2019-01-10T02:36:27.903Z,614.7
2019-01-10T02:37:30.325Z,615
2019-01-10T02:38:32.760Z,614.7
2019-01-10T02:39:35.183Z,614.8
2019-01-10T02:40:37.325Z,614.5
2019-01-10T02:41:39.753Z,614.7
2019-01-10T02:42:42.174Z,614.6
2019-01-10T02:43:44.317Z,615
2019-01-10T02:44:46.745Z,615.1
2019-01-10T02:45:49.177Z,614.9
2019-01-10T02:46:51.331Z,614.9
2019-01-10T02:47:53.491Z,614.8
2019-01-10T02:48:55.926Z,615
2019-01-10T02:49:58.337Z,615.1
2019-01-10T02:51:00.902Z,614.7
2019-01-10T02:52:03.092Z,615.1
2019-01-10T02:53:05.511Z,614.9
2019-01-10T02:54:07.941Z,614.8
2019-01-10T02:55:10.221Z,615.2
2019-01-10T02:56:12.714Z,615.5
2019-01-10T02:57:15.219Z,615.1
2019-01-10T02:58:17.647Z,615.2
2019-01-10T02:59:20.075Z,615
2019-01-10T03:00:22.524Z,615
2019-01-10T03:01:24.943Z,615.1
2019-01-10T03:02:27.377Z,614.9
2019-01-10T03:03:29.537Z,615
2019-01-10T03:04:31.952Z,615
2019-01-10T03:05:34.092Z,615.3
2019-01-10T03:06:36.234Z,615.3
2019-01-10T03:07:38.645Z,615
2019-01-10T03:08:41.069Z,615.2
2019-01-10T03:09:43.497Z,615
2019-01-10T03:10:45.935Z,615.1
2019-01-10T03:11:48.358Z,614.9
2019-01-10T03:12:50.489Z,614.8
2019-01-10T03:13:52.975Z,615.1
2019-01-10T03:14:55.401Z,615.2
2019-01-10T03:15:57.835Z,615.2
2019-01-10T03:17:00.261Z,615.6
2019-01-10T03:18:02.685Z,615.1
2019-01-10T03:19:05.175Z,615.2
2019-01-10T03:20:07.333Z,615.2
2019-01-10T03:21:09.765Z,615.3
2019-01-10T03:22:12.268Z,615.2
2019-01-10T03:23:14.765Z,615.3
2019-01-10T03:24:17.200Z,615.5
2019-01-10T03:25:19.630Z,615.5
2019-01-10T03:26:22.091Z,615.4
2019-01-10T03:27:24.519Z,615.7
2019-01-10T03:28:26.946Z,615.3
2019-01-10T03:29:29.372Z,615.2
2019-01-10T03:30:31.514Z,615.3
2019-01-10T03:31:33.660Z,615.5
2019-01-10T03:32:36.323Z,615.5
2019-01-10T03:33:38.746Z,615.2
2019-01-10T03:34:41.193Z,615.2
2019-01-10T03:35:43.627Z,615.7
2019-01-10T03:36:45.763Z,615.9
2019-01-10T03:37:48.196Z,615.8
2019-01-10T03:38:50.639Z,615.9
2019-01-10T03:39:53.056Z,615.7
2019-01-10T03:40:55.475Z,615.5
2019-01-10T03:41:57.906Z,615.3
2019-01-10T03:43:00.072Z,615.4
2019-01-10T03:44:02.221Z,615.6
2019-01-10T03:45:04.654Z,615.4
2019-01-10T03:46:07.075Z,615.3
2019-01-10T03:47:09.523Z,615.6
2019-01-10T03:48:11.771Z,615.7
2019-01-10T03:49:14.207Z,615.3
2019-01-10T03:50:16.384Z,615.1
2019-01-10T03:51:18.566Z,615.3
2019-01-10T03:52:21.037Z,615.2
2019-01-10T03:53:23.204Z,614.9
2019-01-10T03:54:25.634Z,615.5
2019-01-10T03:55:28.089Z,614.9
2019-01-10T03:56:30.513Z,615.1
2019-01-10T03:57:32.945Z,615.5
2019-01-10T03:58:35.380Z,614.9
2019-01-10T03:59:37.303Z,615
2019-01-10T04:00:39.484Z,615.1
2019-01-10T04:01:41.646Z,615
2019-01-10T04:02:43.532Z,615.2
2019-01-10T04:03:45.409Z,615
2019-01-10T04:04:47.835Z,615
2019-01-10T04:05:50.302Z,615
2019-01-10T04:06:52.733Z,614.9
2019-01-10T04:07:54.910Z,614.8
2019-01-10T04:08:57.376Z,615.2
2019-01-10T04:09:59.517Z,615
2019-01-10T04:11:01.821Z,615
2019-01-10T04:12:05.545Z,614.9
2019-01-10T04:13:08.026Z,614.6
2019-01-10T04:14:10.473Z,614.6
2019-01-10T04:15:12.952Z,614.4
2019-01-10T04:16:15.393Z,614
2019-01-10T04:17:17.881Z,614.4
2019-01-10T04:18:20.335Z,614.5
2019-01-10T04:19:22.762Z,614.3
2019-01-10T04:20:24.989Z,614.1
2019-01-10T04:21:27.170Z,613.9
2019-01-10T04:22:29.646Z,614.3
2019-01-10T04:23:32.106Z,614.1
2019-01-10T04:24:34.503Z,614.4
2019-01-10T04:25:36.953Z,613.8
2019-01-10T04:26:39.393Z,614
2019-01-10T04:27:41.568Z,613.7
2019-01-10T04:28:43.723Z,613.8
2019-01-10T04:29:45.596Z,613.9
2019-01-10T04:30:48.495Z,614
2019-01-10T04:31:50.656Z,613.6
2019-01-10T04:32:52.547Z,613.2
2019-01-10T04:33:54.997Z,613.2
2019-01-10T04:34:57.438Z,614
2019-01-10T04:35:59.877Z,613.5
2019-01-10T04:37:02.328Z,613.2
2019-01-10T04:38:04.495Z,613.5
2019-01-10T04:39:06.924Z,613.8
2019-01-10T04:40:08.804Z,613.3
2019-01-10T04:41:11.222Z,613.1
2019-01-10T04:42:13.655Z,612.9
2019-01-10T04:43:15.832Z,613
2019-01-10T04:44:18.000Z,612.9
2019-01-10T04:45:20.437Z,612.8
2019-01-10T04:46:22.333Z,613
2019-01-10T04:47:24.758Z,612.8
2019-01-10T04:48:27.185Z,612.7
2019-01-10T04:49:29.609Z,613.1
2019-01-10T04:50:32.032Z,612.3
2019-01-10T04:51:33.924Z,613
2019-01-10T04:52:36.084Z,613
2019-01-10T04:53:38.237Z,612.5
2019-01-10T04:54:40.664Z,612.1
2019-01-10T04:55:43.093Z,612.1
2019-01-10T04:56:45.259Z,611.7
2019-01-10T04:57:47.151Z,612
2019-01-10T04:58:49.297Z,612.6
2019-01-10T04:59:51.463Z,611.8
2019-01-10T05:00:53.895Z,612
2019-01-10T05:01:56.325Z,611.9
2019-01-10T05:02:58.484Z,611.7
2019-01-10T05:04:00.375Z,612
2019-01-10T05:05:03.762Z,611.6
2019-01-10T05:06:06.190Z,611.1
2019-01-10T05:07:08.318Z,611
2019-01-10T05:08:10.740Z,611.2
2019-01-10T05:09:12.896Z,610.9
2019-01-10T05:10:14.494Z,610.9
2019-01-10T05:11:16.694Z,611
2019-01-10T05:12:19.122Z,610.9
2019-01-10T05:13:21.002Z,610.7
2019-01-10T05:14:23.476Z,610.7
2019-01-10T05:15:25.899Z,610.7
2019-01-10T05:16:28.334Z,610.9
2019-01-10T05:17:32.220Z,610.5
2019-01-10T05:18:34.384Z,610.5
2019-01-10T05:19:36.797Z,610.3
2019-01-10T05:20:39.296Z,610.5
2019-01-10T05:21:41.435Z,610
2019-01-10T05:22:43.976Z,610.3
2019-01-10T05:23:46.410Z,610.2
2019-01-10T05:24:48.834Z,610.3
2019-01-10T05:25:51.456Z,610.2
2019-01-10T05:26:53.874Z,610.3
2019-01-10T05:27:56.446Z,610.1
2019-01-10T05:28:58.876Z,610.1
2019-01-10T05:30:01.408Z,610
2019-01-10T05:31:03.872Z,610.1
2019-01-10T05:32:06.304Z,609.6
2019-01-10T05:33:08.456Z,610
2019-01-10T05:34:10.607Z,609.6
2019-01-10T05:35:13.039Z,609.7
2019-01-10T05:36:15.483Z,609.5
2019-01-10T05:37:17.370Z,609.3
2019-01-10T05:38:19.803Z,609.4
2019-01-10T05:39:21.944Z,609.4
2019-01-10T05:40:23.624Z,609.2
2019-01-10T05:41:26.054Z,609.2
2019-01-10T05:42:28.485Z,608.8
2019-01-10T05:43:30.914Z,609.5
2019-01-10T05:44:33.334Z,609.2
2019-01-10T05:45:35.518Z,609
2019-01-10T05:46:37.952Z,608.9
2019-01-10T05:47:42.801Z,608.7
2019-01-10T05:48:49.264Z,609
2019-01-10T05:49:51.707Z,608.9
2019-01-10T05:50:54.150Z,608.7
2019-01-10T05:51:56.585Z,608.8
2019-01-10T05:52:59.103Z,608.6
2019-01-10T05:54:01.233Z,608.8
2019-01-10T05:55:03.364Z,608.2
2019-01-10T05:56:14.982Z,607.9
2019-01-10T05:57:12.153Z,608.1
2019-01-10T05:58:14.575Z,608
2019-01-10T05:59:17.016Z,607.6
2019-01-10T06:00:19.450Z,607.5
2019-01-10T06:01:21.873Z,607.7
2019-01-10T06:02:24.296Z,607.7
2019-01-10T06:03:26.729Z,607.5
2019-01-10T06:04:28.947Z,607.1
2019-01-10T06:05:31.375Z,607.3
2019-01-10T06:06:33.812Z,607.1
2019-01-10T06:07:35.973Z,606.7
2019-01-10T06:08:37.548Z,606.8
2019-01-10T06:09:39.973Z,607.2
2019-01-10T06:10:42.410Z,606.5
2019-01-10T06:11:44.941Z,606.7
2019-01-10T06:12:47.434Z,606.3
2019-01-10T06:13:49.651Z,606.4
2019-01-10T06:14:51.253Z,606.3
2019-01-10T06:15:53.724Z,606.2
2019-01-10T06:16:56.167Z,605.9
2019-01-10T06:17:58.333Z,605.8
2019-01-10T06:19:00.792Z,605.7
2019-01-10T06:20:03.313Z,605.4
2019-01-10T06:21:05.742Z,605.6
2019-01-10T06:22:08.193Z,605.7
2019-01-10T06:23:10.633Z,605.2
2019-01-10T06:24:13.068Z,605.4
2019-01-10T06:25:15.363Z,605
2019-01-10T06:26:17.803Z,605.2
2019-01-10T06:27:20.224Z,604.6
2019-01-10T06:28:22.651Z,604.6
2019-01-10T06:29:24.826Z,604.5
2019-01-10T06:30:27.251Z,604.3
2019-01-10T06:31:29.771Z,603.5
2019-01-10T06:32:32.184Z,603.8
2019-01-10T06:33:34.620Z,603.6
2019-01-10T06:34:37.046Z,603.7
2019-01-10T06:35:39.196Z,603.6
2019-01-10T06:36:41.355Z,603.3
2019-01-10T06:37:43.554Z,603.6
2019-01-10T06:38:45.993Z,603.4
2019-01-10T06:39:48.136Z,603.1
2019-01-10T06:40:50.297Z,603.3
2019-01-10T06:41:52.478Z,603.1
2019-01-10T06:42:54.831Z,603
2019-01-10T06:43:56.761Z,602.8
2019-01-10T06:44:58.886Z,602.8
2019-01-10T06:46:01.318Z,603
2019-01-10T06:47:03.558Z,602.9
2019-01-10T06:48:06.000Z,602.5
2019-01-10T06:49:07.877Z,602.3
2019-01-10T06:50:09.758Z,602.4
2019-01-10T06:51:12.173Z,602.2
2019-01-10T06:52:14.059Z,602.7
2019-01-10T06:53:16.492Z,602.3
2019-01-10T06:54:18.650Z,602
2019-01-10T06:55:21.080Z,602.7
2019-01-10T06:56:23.506Z,602.4
2019-01-10T06:57:25.674Z,602.2
2019-01-10T06:58:27.814Z,602.3
2019-01-10T06:59:30.252Z,602.2
2019-01-10T07:00:32.406Z,602.2
2019-01-10T07:01:34.564Z,602.1
2019-01-10T07:02:36.989Z,602.2
2019-01-10T07:03:39.149Z,601.8
2019-01-10T07:04:41.585Z,602.1
2019-01-10T07:05:44.023Z,601.8
2019-01-10T07:06:46.175Z,601.9
2019-01-10T07:08:53.594Z,602
2019-01-10T07:09:55.741Z,601.9
2019-01-10T07:10:58.177Z,601.2
2019-01-10T07:12:00.619Z,601.4
2019-01-10T07:13:03.123Z,601.3
2019-01-10T07:14:05.283Z,601.4
2019-01-10T07:15:07.413Z,601.5
2019-01-10T07:16:09.857Z,601.4
2019-01-10T07:17:12.296Z,600.9
2019-01-10T07:18:14.468Z,601.2
2019-01-10T07:19:16.909Z,601.2
2019-01-10T07:20:19.347Z,600.7
2019-01-10T07:21:21.771Z,600.8
2019-01-10T07:22:24.207Z,600.6
2019-01-10T07:23:26.642Z,600.7
2019-01-10T07:24:28.863Z,600.4
2019-01-10T07:25:30.467Z,600
2019-01-10T07:26:32.635Z,600.1
2019-01-10T07:27:35.063Z,600.3
2019-01-10T07:28:37.238Z,599.9
2019-01-10T07:29:39.663Z,599.8
2019-01-10T07:30:42.099Z,600.1
2019-01-10T07:31:44.225Z,599.9
2019-01-10T07:32:46.369Z,599.7
2019-01-10T07:33:48.538Z,599.7
2019-01-10T07:34:50.764Z,599.6
2019-01-10T07:35:52.928Z,599.4
2019-01-10T07:36:55.357Z,599.1
2019-01-10T07:37:57.797Z,599.3
2019-01-10T07:38:59.951Z,599
2019-01-10T07:40:02.214Z,598.6
2019-01-10T07:41:04.377Z,598.8
2019-01-10T07:42:06.810Z,598.7
2019-01-10T07:43:09.245Z,598.8
2019-01-10T07:44:12.134Z,598.5
2019-01-10T07:45:14.293Z,598.7
2019-01-10T07:46:16.735Z,598.6
2019-01-10T07:47:18.904Z,598.4
2019-01-10T07:48:21.041Z,598.6
2019-01-10T07:49:23.652Z,598.4
2019-01-10T07:50:26.099Z,598.2
2019-01-10T07:51:28.264Z,598.4
2019-01-10T07:52:31.737Z,598.2
2019-01-10T07:53:33.888Z,597.8
2019-01-10T07:54:36.039Z,597.9
2019-01-10T07:55:38.471Z,597.5
2019-01-10T07:56:40.921Z,597.4
2019-01-10T07:57:43.059Z,597.5
2019-01-10T07:58:45.484Z,597.4
2019-01-10T07:59:47.928Z,597.5
2019-01-10T08:00:50.350Z,597.4
2019-01-10T08:01:52.265Z,597.4
2019-01-10T08:02:54.163Z,597
2019-01-10T08:03:56.355Z,597.3
2019-01-10T08:04:58.529Z,597.1
2019-01-10T08:06:00.698Z,596.7
2019-01-10T08:07:02.858Z,596.9
2019-01-10T08:08:04.756Z,596.7
2019-01-10T08:09:07.181Z,596.6
2019-01-10T08:10:09.613Z,596.5
2019-01-10T08:11:11.771Z,596.6
2019-01-10T08:12:14.195Z,596.8
2019-01-10T08:13:16.620Z,596.1
2019-01-10T08:14:19.054Z,595.9
2019-01-10T08:15:21.491Z,595.6
2019-01-10T08:16:23.670Z,595.7
2019-01-10T08:17:25.849Z,595.4
2019-01-10T08:18:28.271Z,595.4
2019-01-10T08:19:30.758Z,595.5
2019-01-10T08:20:32.910Z,595.3
2019-01-10T08:21:35.337Z,595
2019-01-10T08:22:37.486Z,595
2019-01-10T08:23:39.912Z,594.8
2019-01-10T08:24:42.326Z,594.8
2019-01-10T08:25:44.754Z,594.8
2019-01-10T08:26:47.184Z,595.4
2019-01-10T08:27:49.601Z,594.7
2019-01-10T08:28:51.745Z,594.8
2019-01-10T08:29:53.905Z,594.7
2019-01-10T08:30:56.335Z,594.6
2019-01-10T08:31:58.763Z,594.5
2019-01-10T08:33:00.972Z,594.4
2019-01-10T08:34:03.412Z,594.4
2019-01-10T08:35:05.843Z,594.5
2019-01-10T08:36:07.974Z,594.4
2019-01-10T08:37:12.158Z,594
2019-01-10T08:38:14.682Z,594.1
2019-01-10T08:39:17.100Z,594.4
2019-01-10T08:40:19.522Z,593.9
2019-01-10T08:41:21.942Z,594
2019-01-10T08:42:24.368Z,593.7
2019-01-10T08:43:26.539Z,593.7
2019-01-10T08:44:28.856Z,593.6
2019-01-10T08:45:30.996Z,593.6
2019-01-10T08:46:33.149Z,593.8
2019-01-10T08:47:35.327Z,594.4
2019-01-10T08:48:37.463Z,593.6
2019-01-10T08:49:39.900Z,594.2
2019-01-10T08:50:42.395Z,593.6
2019-01-10T08:51:44.851Z,593.5
2019-01-10T08:52:47.273Z,593.5
2019-01-10T08:54:54.123Z,593.1
2019-01-10T08:55:56.558Z,593.3
2019-01-10T08:56:58.687Z,593.4
2019-01-10T08:58:00.361Z,593.1
2019-01-10T08:59:02.534Z,593.4
2019-01-10T09:00:04.955Z,592.7
2019-01-10T09:01:07.387Z,593.3
2019-01-10T09:02:09.805Z,592.6
2019-01-10T09:03:11.677Z,592.9
2019-01-10T09:04:14.096Z,592.8
2019-01-10T09:05:16.356Z,592.8
2019-01-10T09:06:18.504Z,592.3
2019-01-10T09:07:20.678Z,592.6
2019-01-10T09:08:22.829Z,592.4
2019-01-10T09:09:25.263Z,592
2019-01-10T09:10:27.134Z,592.2
2019-01-10T09:11:29.574Z,592.3
2019-01-10T09:12:31.999Z,592.2
2019-01-10T09:13:34.426Z,591.9
2019-01-10T09:14:36.858Z,591.9
2019-01-10T09:15:39.298Z,591.9
2019-01-10T09:16:41.714Z,591.8
2019-01-10T09:17:44.143Z,591.5
2019-01-10T09:18:46.569Z,591.9
2019-01-10T09:19:50.898Z,591.4
2019-01-10T09:20:53.391Z,591.4
2019-01-10T09:21:55.254Z,591.1
2019-01-10T09:22:57.692Z,591.2
2019-01-10T09:24:00.117Z,591.1
2019-01-10T09:25:02.541Z,591.1
2019-01-10T09:26:04.675Z,591.1
2019-01-10T09:27:06.833Z,590.8
2019-01-10T09:28:09.288Z,590.9
2019-01-10T09:29:11.725Z,590.6
2019-01-10T09:30:14.186Z,590.4
2019-01-10T09:31:16.325Z,590.3
2019-01-10T09:32:18.762Z,591
2019-01-10T09:33:20.919Z,590.1
2019-01-10T09:35:28.051Z,590
2019-01-10T09:36:30.473Z,590.3
2019-01-10T09:37:32.912Z,590.1
2019-01-10T09:38:35.331Z,590.3
2019-01-10T09:39:37.754Z,589.6
2019-01-10T09:40:39.951Z,589.6
2019-01-10T09:41:42.367Z,589.9
2019-01-10T09:42:44.789Z,589.6
2019-01-10T09:43:46.934Z,589.8
2019-01-10T09:44:49.095Z,589.6
2019-01-10T09:45:51.521Z,589.3
2019-01-10T09:46:53.731Z,589.6
2019-01-10T09:47:55.861Z,589.3
2019-01-10T09:48:58.028Z,589.2
2019-01-10T09:50:00.460Z,588.9
2019-01-10T09:51:02.886Z,589.1
2019-01-10T09:52:05.309Z,589.1
2019-01-10T09:53:07.735Z,589.2
2019-01-10T09:54:09.866Z,588.8
2019-01-10T09:55:12.298Z,588.6
2019-01-10T09:56:14.169Z,588.5
2019-01-10T09:57:16.069Z,588.9
2019-01-10T09:58:18.606Z,588.8
2019-01-10T09:59:20.211Z,588.8
2019-01-10T10:00:22.088Z,589.1
2019-01-10T10:01:24.517Z,589.1
2019-01-10T10:02:26.938Z,588.6
2019-01-10T10:03:29.387Z,589
2019-01-10T10:04:31.824Z,588.5
2019-01-10T10:05:34.252Z,588.5
2019-01-10T10:06:36.679Z,588.5
2019-01-10T10:07:38.573Z,588.6
2019-01-10T10:08:40.994Z,588.5
2019-01-10T10:09:43.154Z,588.7
2019-01-10T10:10:45.279Z,588.3
2019-01-10T10:11:47.434Z,588.3
2019-01-10T10:12:49.886Z,588.4
2019-01-10T10:13:52.028Z,588.4
2019-01-10T10:14:54.528Z,588.6
2019-01-10T10:15:56.943Z,588.1
2019-01-10T10:16:58.819Z,588.3
2019-01-10T10:18:01.242Z,588.3
2019-01-10T10:19:03.665Z,588.1
2019-01-10T10:20:06.104Z,588.2
2019-01-10T10:21:08.345Z,588
2019-01-10T10:22:10.504Z,588
2019-01-10T10:23:12.945Z,587.7
2019-01-10T10:24:15.374Z,587.7
2019-01-10T10:25:17.843Z,587.8
2019-01-10T10:26:20.000Z,588.2
2019-01-10T10:27:22.425Z,587.9
2019-01-10T10:28:24.854Z,587.4
2019-01-10T10:29:27.282Z,587.5
2019-01-10T10:30:29.155Z,588
2019-01-10T10:31:31.579Z,588
2019-01-10T10:32:34.005Z,587.6
2019-01-10T10:33:36.428Z,587.2
2019-01-10T10:34:38.330Z,587.6
2019-01-10T10:35:40.764Z,587.3
2019-01-10T10:36:43.197Z,587.2
2019-01-10T10:37:45.076Z,586.9
2019-01-10T10:38:47.505Z,586.9
2019-01-10T10:39:49.943Z,586.8
2019-01-10T10:40:52.383Z,586.8
2019-01-10T10:41:54.535Z,587.1
2019-01-10T10:42:56.990Z,586.9
2019-01-10T10:43:59.422Z,586.7
2019-01-10T10:45:01.864Z,586.7
2019-01-10T10:46:04.296Z,586.5
2019-01-10T10:47:06.454Z,586.8
2019-01-10T10:48:08.614Z,586.5
2019-01-10T10:49:11.042Z,586.3
2019-01-10T10:50:13.467Z,586.3
2019-01-10T10:51:15.984Z,586.6
2019-01-10T10:52:18.414Z,586.5
2019-01-10T10:53:20.840Z,586.7
2019-01-10T10:54:23.288Z,586.5
2019-01-10T10:55:25.746Z,586.3
2019-01-10T10:56:27.905Z,586.3
2019-01-10T10:57:30.358Z,586.3
2019-01-10T10:58:32.482Z,586.4
2019-01-10T10:59:34.098Z,586.2
2019-01-10T11:00:35.962Z,586.2
2019-01-10T11:01:37.826Z,586
2019-01-10T11:02:39.701Z,586.4
2019-01-10T11:03:41.864Z,586
2019-01-10T11:04:44.304Z,585.9
2019-01-10T11:05:46.732Z,586
2019-01-10T11:06:48.598Z,586.1
2019-01-10T11:07:51.021Z,585.7
2019-01-10T11:08:53.458Z,585.8
2019-01-10T11:09:55.886Z,586.2
2019-01-10T11:10:58.029Z,585.9
2019-01-10T11:12:00.463Z,585.8
2019-01-10T11:13:02.622Z,585.7
2019-01-10T11:14:05.044Z,585.9
2019-01-10T11:15:07.471Z,586.1
2019-01-10T11:17:14.943Z,585.9
2019-01-10T11:18:16.839Z,586.1
2019-01-10T11:19:19.001Z,586.5
2019-01-10T11:20:21.132Z,585.8
2019-01-10T11:21:23.294Z,586.3
2019-01-10T11:22:25.707Z,586.2
2019-01-10T11:23:27.598Z,585.8
2019-01-10T11:24:30.035Z,586.3
2019-01-10T11:25:32.452Z,585.6
2019-01-10T11:26:34.594Z,586
2019-01-10T11:27:37.027Z,586
2019-01-10T11:28:39.190Z,585.9
2019-01-10T11:29:41.348Z,586.1
2019-01-10T11:30:43.225Z,586.2
2019-01-10T11:31:45.662Z,585.9
2019-01-10T11:32:47.794Z,586
2019-01-10T11:33:49.948Z,585.8
2019-01-10T11:34:52.102Z,585.9
2019-01-10T11:35:54.530Z,586
2019-01-10T11:36:57.054Z,586.4
2019-01-10T11:37:59.504Z,586.3
2019-01-10T11:39:01.937Z,586.4
2019-01-10T11:40:04.364Z,585.9
2019-01-10T11:41:06.232Z,586.1
2019-01-10T11:42:08.661Z,585.9
2019-01-10T11:43:11.187Z,586
2019-01-10T11:44:15.391Z,586
2019-01-10T11:45:17.564Z,586.2
2019-01-10T11:46:21.703Z,585.9
2019-01-10T11:47:23.856Z,585.8
2019-01-10T11:48:26.006Z,585.9
2019-01-10T11:49:28.236Z,586.1
2019-01-10T11:50:30.667Z,585.4
2019-01-10T11:51:32.844Z,585.5
2019-01-10T11:52:35.264Z,585.8
2019-01-10T11:53:37.788Z,586.1
2019-01-10T11:54:40.214Z,586.1
2019-01-10T11:55:42.375Z,586.3
2019-01-10T11:56:44.541Z,586.4
2019-01-10T11:57:46.966Z,586.3
2019-01-10T11:58:49.391Z,586.3
2019-01-10T11:59:51.823Z,585.8
2019-01-10T12:00:54.255Z,585.9
2019-01-10T12:01:56.414Z,586
2019-01-10T12:02:58.838Z,586
2019-01-10T12:04:01.306Z,585.7
2019-01-10T12:05:03.187Z,585.6
2019-01-10T12:06:05.610Z,585.5
2019-01-10T12:07:07.485Z,585.5
2019-01-10T12:08:09.656Z,585.3
2019-01-10T12:09:11.525Z,585.5
2019-01-10T12:10:13.970Z,585.3
2019-01-10T12:11:15.849Z,585.5
2019-01-10T12:12:18.312Z,585.1
2019-01-10T12:13:20.460Z,585.4
2019-01-10T12:14:22.625Z,585.4
2019-01-10T12:15:25.059Z,585.1
2019-01-10T12:17:32.879Z,585.5
2019-01-10T12:18:35.316Z,585.4
2019-01-10T12:19:37.740Z,585.2
2019-01-10T12:20:39.920Z,585.2
2019-01-10T12:21:42.357Z,585.3
2019-01-10T12:22:44.786Z,584.9
2019-01-10T12:23:46.937Z,585.1
2019-01-10T12:24:49.078Z,585.2
2019-01-10T12:25:51.504Z,585
2019-01-10T12:26:53.401Z,585.2
2019-01-10T12:27:55.824Z,585.2
2019-01-10T12:28:58.256Z,585.5
2019-01-10T12:30:00.673Z,585.3
2019-01-10T12:31:03.106Z,585.4
2019-01-10T12:32:05.532Z,585.1
2019-01-10T12:33:07.959Z,585.2
2019-01-10T12:34:10.404Z,585.3
2019-01-10T12:35:12.836Z,585.2
2019-01-10T12:36:14.994Z,585
2019-01-10T12:37:17.425Z,585.4
2019-01-10T12:38:19.851Z,585.4
2019-01-10T12:39:22.285Z,584.9
2019-01-10T12:40:24.437Z,584.9
2019-01-10T12:41:26.902Z,585.3
2019-01-10T12:42:29.345Z,585.1
2019-01-10T12:43:31.514Z,585.3
2019-01-10T12:44:33.668Z,584.9
2019-01-10T12:45:35.851Z,585.6
2019-01-10T12:46:39.445Z,585
2019-01-10T12:47:41.872Z,584.7
2019-01-10T12:48:44.320Z,585
2019-01-10T12:49:46.469Z,585.1
2019-01-10T12:50:48.900Z,584.6
2019-01-10T12:51:50.795Z,584.6
2019-01-10T12:52:52.942Z,584.5
2019-01-10T12:53:55.372Z,584.8
2019-01-10T12:54:57.796Z,584.7
2019-01-10T12:56:00.235Z,584.7
2019-01-10T12:57:02.673Z,584.8
2019-01-10T12:58:05.105Z,584.5
2019-01-10T12:59:07.523Z,584.7
2019-01-10T13:00:10.094Z,584.6
2019-01-10T13:01:12.527Z,584.8
2019-01-10T13:02:14.958Z,584.7
2019-01-10T13:03:17.375Z,584.8
2019-01-10T13:04:19.255Z,584.4
2019-01-10T13:05:21.792Z,584.5
2019-01-10T13:06:23.686Z,584.3
2019-01-10T13:07:25.846Z,584.4
2019-01-10T13:08:28.282Z,584.3
2019-01-10T13:09:30.466Z,584
2019-01-10T13:10:32.345Z,583.9
2019-01-10T13:11:34.783Z,584
2019-01-10T13:12:37.216Z,583.9
2019-01-10T13:13:39.390Z,583.9
2019-01-10T13:14:41.831Z,583.7
2019-01-10T13:15:44.461Z,583.9
2019-01-10T13:17:51.581Z,583.8
2019-01-10T13:18:54.009Z,583.5
2019-01-10T13:19:56.428Z,583.5
2019-01-10T13:20:58.855Z,583.2
2019-01-10T13:22:01.335Z,583.3
2019-01-10T13:23:03.777Z,583.3
2019-01-10T13:24:05.966Z,583.1
2019-01-10T13:25:08.099Z,582.9
2019-01-10T13:26:10.529Z,582.8
2019-01-10T13:27:12.675Z,582.4
2019-01-10T13:28:14.835Z,582.8
2019-01-10T13:29:17.286Z,582.4
2019-01-10T13:30:19.734Z,582.3
2019-01-10T13:31:21.613Z,582.4
2019-01-10T13:32:23.764Z,582.6
2019-01-10T13:33:25.944Z,582.5
2019-01-10T13:34:28.383Z,582.2
2019-01-10T13:35:30.805Z,582.2
2019-01-10T13:36:32.950Z,582.3